Time;durP1;ratioP1;P1;durP2;ratioP2;P2;SDS_P1;SDS_P2;PMS_P1;PMS_P2;Temp;Humidity;BMP_temperature;BMP_pressure;BME280_temperature;BME280_humidity;BME280_pressure;Samples;Min_cycle;Max_cycle;Signal;HPM_P1;HPM_P2
2023/08/13 00:00:18;;;;;;;;;;;;;;;;;;2092991;28;19913;-81
2023/08/13 00:01:39;;;;;;;;;;;;;;;;;;2097129;28;20364;-81
2023/08/13 00:03:00;;;;;;;;;;;;;;;;;;2082973;28;19909;-81
2023/08/13 00:04:20;;;;;;;;;;;;;;;;;;2088712;28;20292;-81
2023/08/13 00:05:41;;;;;;;;;;;;;;;;;;2082546;28;19921;-81
2023/08/13 00:07:02;;;;;;;;;;;;;;;;;;2096648;28;20342;-80
2023/08/13 00:08:23;;;;;;;;;;;;;;;;;;2108124;28;19938;-81
2023/08/13 00:09:43;;;;;;;;;;;;;;;;;;2105127;28;19919;-81
2023/08/13 00:11:04;;;;;;;;;;;;;;;;;;2102025;28;19919;-80
2023/08/13 00:12:25;;;;;;;;;;;;;;;;;;2092731;28;19916;-81
2023/08/13 00:13:45;;;;;;;;;;;;;;;;;;2100000;28;19915;-80
2023/08/13 00:15:06;;;;;;;;;;;;;;;;;;2085382;28;19916;-81
2023/08/13 00:16:27;;;;;;;;;;;;;;;;;;2092057;28;19917;-80
2023/08/13 00:17:48;;;;;;;;;;;;;;;;;;2105841;28;19908;-81
2023/08/13 00:19:08;;;;;;;;;;;;;;;;;;2093304;28;19909;-84
2023/08/13 00:20:29;;;;;;;;;;;;;;;;;;2090153;28;19923;-81
2023/08/13 00:21:50;;;;;;;;;;;;;;;;;;2099824;28;19915;-81
2023/08/13 00:23:11;;;;;;;;;;;;;;;;;;2084815;28;19909;-81
2023/08/13 00:24:32;;;;;;;;;;;;;;;;;;2098039;28;19923;-81
2023/08/13 00:25:53;;;;;;;;;;;;;;;;;;2084439;28;19924;-81
2023/08/13 00:27:14;;;;;;;;;;;;;;;;;;2090603;28;19915;-80
2023/08/13 00:28:34;;;;;;;;;;;;;;;;;;2097913;28;19909;-81
2023/08/13 00:29:55;;;;;;;;;;;;;;;;;;2099607;28;20379;-81
2023/08/13 00:31:16;;;;;;;;;;;;;;;;;;2090264;28;19909;-80
2023/08/13 00:32:37;;;;;;;;;;;;;;;;;;2089824;28;19916;-81
2023/08/13 00:33:57;;;;;;;;;;;;;;;;;;2081384;28;19913;-81
2023/08/13 00:35:18;;;;;;;;;;;;;;;;;;2096594;28;19916;-81
2023/08/13 00:36:39;;;;;;;;;;;;;;;;;;2092954;28;19980;-81
2023/08/13 00:37:59;;;;;;;;;;;;;;;;;;2090583;28;19913;-81
2023/08/13 00:39:20;;;;;;;;;;;;;;;;;;2085324;28;19916;-83
2023/08/13 00:40:41;;;;;;;;;;;;;;;;;;2095123;28;20435;-82
2023/08/13 00:42:02;;;;;;;;;;;;;;;;;;2086134;28;19917;-81
2023/08/13 00:43:22;;;;;;;;;;;;;;;;;;2088010;28;19913;-81
2023/08/13 00:44:43;;;;;;;;;;;;;;;;;;2098357;28;19913;-81
2023/08/13 00:46:04;;;;;;;;;;;;;;;;;;2089364;28;20007;-81
2023/08/13 00:47:25;;;;;;;;;;;;;;;;;;2089158;28;19920;-81
2023/08/13 00:48:46;;;;;;;;;;;;;;;;;;2099133;28;19908;-81
2023/08/13 00:50:06;;;;;;;;;;;;;;;;;;2087462;28;19909;-81
2023/08/13 00:51:27;;;;;;;;;;;;;;;;;;2096214;28;20357;-81
2023/08/13 00:52:48;;;;;;;;;;;;;;;;;;2086649;28;19917;-81
2023/08/13 00:54:08;;;;;;;;;;;;;;;;;;2095794;28;19909;-81
2023/08/13 00:55:29;;;;;;;;;;;;;;;;;;2086384;28;20361;-81
2023/08/13 00:56:50;;;;;;;;;;;;;;;;;;2095137;28;20027;-81
2023/08/13 00:58:10;;;;;;;;;;;;;;;;;;2086095;28;19909;-81
2023/08/13 00:59:31;;;;;;;;;;;;;;;;;;2096226;28;19909;-82
2023/08/13 01:00:52;;;;;;;;;;;;;;;;;;2095064;28;19987;-81
2023/08/13 01:02:13;;;;;;;;;;;;;;;;;;2082024;28;19920;-81
2023/08/13 01:03:33;;;;;;;;;;;;;;;;;;2082288;28;19916;-81
2023/08/13 01:04:55;;;;;;;;;;;;;;;;;;2089635;28;19909;-80
2023/08/13 01:06:15;;;;;;;;;;;;;;;;;;2090227;28;19917;-81
2023/08/13 01:07:36;;;;;;;;;;;;;;;;;;2092360;28;20449;-82
2023/08/13 01:08:57;;;;;;;;;;;;;;;;;;2096142;28;19931;-81
2023/08/13 01:10:18;;;;;;;;;;;;;;;;;;2105694;28;19908;-81
2023/08/13 01:11:39;;;;;;;;;;;;;;;;;;2097553;28;20398;-81
2023/08/13 01:13:00;;;;;;;;;;;;;;;;;;2099457;28;19908;-82
2023/08/13 01:14:21;;;;;;;;;;;;;;;;;;2099339;28;19908;-81
2023/08/13 01:15:41;;;;;;;;;;;;;;;;;;2099204;28;19920;-80
2023/08/13 01:17:03;;;;;;;;;;;;;;;;;;2093020;28;19913;-81
2023/08/13 01:18:24;;;;;;;;;;;;;;;;;;2097597;28;20011;-82
2023/08/13 01:19:44;;;;;;;;;;;;;;;;;;2098352;28;19913;-81
2023/08/13 01:21:05;;;;;;;;;;;;;;;;;;2094814;28;19909;-81
2023/08/13 01:22:26;;;;;;;;;;;;;;;;;;2103446;28;19912;-81
2023/08/13 01:23:46;;;;;;;;;;;;;;;;;;2093978;28;19909;-81
2023/08/13 01:25:07;;;;;;;;;;;;;;;;;;2082497;28;20340;-81
2023/08/13 01:26:28;;;;;;;;;;;;;;;;;;2081350;28;19917;-81
2023/08/13 01:27:49;;;;;;;;;;;;;;;;;;2081642;28;19910;-82
2023/08/13 01:29:10;;;;;;;;;;;;;;;;;;2088240;28;19916;-81
2023/08/13 01:30:30;;;;;;;;;;;;;;;;;;2085303;28;20330;-81
2023/08/13 01:31:51;;;;;;;;;;;;;;;;;;2082344;28;19909;-81
2023/08/13 01:33:12;;;;;;;;;;;;;;;;;;2091727;28;19920;-81
2023/08/13 01:34:33;;;;;;;;;;;;;;;;;;2093278;28;19924;-81
2023/08/13 01:35:53;;;;;;;;;;;;;;;;;;2092773;28;19909;-81
2023/08/13 01:37:14;;;;;;;;;;;;;;;;;;2087478;28;19948;-80
2023/08/13 01:38:35;;;;;;;;;;;;;;;;;;2088632;28;19913;-81
2023/08/13 01:39:55;;;;;;;;;;;;;;;;;;2081166;28;19913;-81
2023/08/13 01:41:16;;;;;;;;;;;;;;;;;;2087098;28;19912;-81
2023/08/13 01:42:37;;;;;;;;;;;;;;;;;;2080845;28;19909;-80
2023/08/13 01:43:57;;;;;;;;;;;;;;;;;;2079748;28;19909;-81
2023/08/13 01:45:18;;;;;;;;;;;;;;;;;;2083084;28;20282;-80
2023/08/13 01:46:39;;;;;;;;;;;;;;;;;;2081321;28;19917;-81
2023/08/13 01:48:00;;;;;;;;;;;;;;;;;;2073514;28;20316;-80
2023/08/13 01:49:20;;;;;;;;;;;;;;;;;;2080340;28;19989;-81
2023/08/13 01:50:41;;;;;;;;;;;;;;;;;;2079151;28;19917;-81
2023/08/13 01:52:02;;;;;;;;;;;;;;;;;;2087613;28;19963;-81
2023/08/13 01:53:22;;;;;;;;;;;;;;;;;;2090770;28;19920;-81
2023/08/13 01:54:43;;;;;;;;;;;;;;;;;;2090991;28;19913;-81
2023/08/13 01:56:04;;;;;;;;;;;;;;;;;;2080999;28;19933;-81
2023/08/13 01:57:24;;;;;;;;;;;;;;;;;;2079221;28;19980;-81
2023/08/13 01:58:45;;;;;;;;;;;;;;;;;;2083148;28;19975;-80
2023/08/13 02:00:07;;;;;;;;;;;;;;;;;;2082274;28;19917;-81
2023/08/13 02:01:27;;;;;;;;;;;;;;;;;;2083540;28;19913;-81
2023/08/13 02:02:48;;;;;;;;;;;;;;;;;;2074702;28;20352;-80
2023/08/13 02:04:09;;;;;;;;;;;;;;;;;;2078807;28;19909;-80
2023/08/13 02:05:30;;;;;;;;;;;;;;;;;;2074013;28;19919;-80
2023/08/13 02:06:50;;;;;;;;;;;;;;;;;;2078434;28;19917;-81
2023/08/13 02:08:11;;;;;;;;;;;;;;;;;;2090086;28;20355;-83
2023/08/13 02:09:32;;;;;;;;;;;;;;;;;;2073497;28;19965;-80
2023/08/13 02:10:52;;;;;;;;;;;;;;;;;;2067054;28;20285;-81
2023/08/13 02:12:13;;;;;;;;;;;;;;;;;;2071496;28;19914;-80
2023/08/13 02:13:34;;;;;;;;;;;;;;;;;;2074108;28;19917;-80
2023/08/13 02:14:54;;;;;;;;;;;;;;;;;;2072756;28;20372;-80
2023/08/13 02:16:15;;;;;;;;;;;;;;;;;;2065849;28;19918;-80
2023/08/13 02:17:36;;;;;;;;;;;;;;;;;;2068665;28;20002;-80
2023/08/13 02:18:57;;;;;;;;;;;;;;;;;;2073763;28;19910;-80
2023/08/13 02:20:17;;;;;;;;;;;;;;;;;;2067431;28;19920;-80
2023/08/13 02:21:38;;;;;;;;;;;;;;;;;;2079074;28;19909;-79
2023/08/13 02:22:59;;;;;;;;;;;;;;;;;;2082323;28;19909;-80
2023/08/13 02:24:19;;;;;;;;;;;;;;;;;;2083405;28;19909;-80
2023/08/13 02:25:40;;;;;;;;;;;;;;;;;;2081197;28;20305;-80
2023/08/13 02:27:01;;;;;;;;;;;;;;;;;;2083480;28;19955;-81
2023/08/13 02:28:21;;;;;;;;;;;;;;;;;;2089959;28;19909;-79
2023/08/13 02:29:42;;;;;;;;;;;;;;;;;;2076990;28;19917;-80
2023/08/13 02:31:03;;;;;;;;;;;;;;;;;;2079755;28;19924;-80
2023/08/13 02:32:24;;;;;;;;;;;;;;;;;;2076463;28;19917;-80
2023/08/13 02:33:44;;;;;;;;;;;;;;;;;;2079959;28;19909;-80
2023/08/13 02:35:05;;;;;;;;;;;;;;;;;;2081989;28;19963;-80
2023/08/13 02:36:26;;;;;;;;;;;;;;;;;;2080541;28;19914;-80
2023/08/13 02:37:46;;;;;;;;;;;;;;;;;;2087181;28;20308;-81
2023/08/13 02:39:07;;;;;;;;;;;;;;;;;;2081415;28;19919;-80
2023/08/13 02:40:28;;;;;;;;;;;;;;;;;;2079074;28;19917;-80
2023/08/13 02:41:48;;;;;;;;;;;;;;;;;;2087484;28;19908;-79
2023/08/13 02:43:09;;;;;;;;;;;;;;;;;;2081669;28;20071;-80
2023/08/13 02:44:30;;;;;;;;;;;;;;;;;;2088127;28;19909;-80
2023/08/13 02:45:51;;;;;;;;;;;;;;;;;;2079401;28;20393;-80
2023/08/13 02:47:11;;;;;;;;;;;;;;;;;;2083783;28;19943;-79
2023/08/13 02:48:32;;;;;;;;;;;;;;;;;;2075375;28;19909;-81
2023/08/13 02:49:53;;;;;;;;;;;;;;;;;;2070080;28;19920;-80
2023/08/13 02:51:13;;;;;;;;;;;;;;;;;;2079383;28;19913;-81
2023/08/13 02:52:34;;;;;;;;;;;;;;;;;;2081636;28;19920;-80
2023/08/13 02:53:55;;;;;;;;;;;;;;;;;;2082036;28;19909;-80
2023/08/13 02:55:16;;;;;;;;;;;;;;;;;;2081992;28;19928;-80
2023/08/13 02:56:36;;;;;;;;;;;;;;;;;;2073065;28;19929;-81
2023/08/13 02:57:57;;;;;;;;;;;;;;;;;;2077909;28;20376;-80
2023/08/13 02:59:18;;;;;;;;;;;;;;;;;;2074422;28;19909;-80
2023/08/13 03:00:38;;;;;;;;;;;;;;;;;;2078809;28;19913;-80
2023/08/13 03:01:59;;;;;;;;;;;;;;;;;;2074611;28;20368;-81
2023/08/13 03:03:20;;;;;;;;;;;;;;;;;;2078296;28;19913;-80
2023/08/13 03:04:40;;;;;;;;;;;;;;;;;;2082650;28;19913;-80
2023/08/13 03:06:01;;;;;;;;;;;;;;;;;;2065858;28;19909;-80
2023/08/13 03:07:22;;;;;;;;;;;;;;;;;;2084130;28;20356;-80
2023/08/13 03:08:43;;;;;;;;;;;;;;;;;;2079774;28;19913;-80
2023/08/13 03:10:03;;;;;;;;;;;;;;;;;;2081743;28;20356;-80
2023/08/13 03:11:24;;;;;;;;;;;;;;;;;;2073222;28;19913;-80
2023/08/13 03:12:45;;;;;;;;;;;;;;;;;;2079728;28;19915;-79
2023/08/13 03:14:05;;;;;;;;;;;;;;;;;;2073514;28;20381;-80
2023/08/13 03:15:26;;;;;;;;;;;;;;;;;;2070719;28;19917;-80
2023/08/13 03:16:47;;;;;;;;;;;;;;;;;;2073084;28;19913;-81
2023/08/13 03:18:07;;;;;;;;;;;;;;;;;;2079154;28;19916;-81
2023/08/13 03:19:28;;;;;;;;;;;;;;;;;;2087613;28;19909;-81
2023/08/13 03:20:49;;;;;;;;;;;;;;;;;;2083751;28;19939;-80
2023/08/13 03:22:10;;;;;;;;;;;;;;;;;;2088558;28;19909;-81
2023/08/13 03:23:32;;;;;;;;;;;;;;;;;;2076235;28;19909;-80
2023/08/13 03:24:53;;;;;;;;;;;;;;;;;;2086876;28;20084;-80
2023/08/13 03:26:13;;;;;;;;;;;;;;;;;;2074531;28;19921;-80
2023/08/13 03:27:34;;;;;;;;;;;;;;;;;;2070347;28;19922;-81
2023/08/13 03:28:55;;;;;;;;;;;;;;;;;;2064950;28;19978;-80
2023/08/13 03:30:15;;;;;;;;;;;;;;;;;;2070804;28;19909;-80
2023/08/13 03:31:36;;;;;;;;;;;;;;;;;;2084865;28;19909;-80
2023/08/13 03:32:57;;;;;;;;;;;;;;;;;;2084436;28;20230;-80
2023/08/13 03:34:17;;;;;;;;;;;;;;;;;;2083770;28;19909;-81
2023/08/13 03:35:38;;;;;;;;;;;;;;;;;;2076322;28;19920;-80
2023/08/13 03:36:59;;;;;;;;;;;;;;;;;;2079717;28;19920;-81
2023/08/13 03:38:20;;;;;;;;;;;;;;;;;;2075642;28;20322;-80
2023/08/13 03:39:40;;;;;;;;;;;;;;;;;;2078101;28;19913;-81
2023/08/13 03:41:01;;;;;;;;;;;;;;;;;;2073041;28;19913;-80
2023/08/13 03:42:22;;;;;;;;;;;;;;;;;;2079282;28;19910;-81
2023/08/13 03:43:43;;;;;;;;;;;;;;;;;;2071415;28;19959;-80
2023/08/13 03:45:04;;;;;;;;;;;;;;;;;;2071786;28;20281;-80
2023/08/13 03:46:24;;;;;;;;;;;;;;;;;;2080413;28;19916;-81
2023/08/13 03:47:45;;;;;;;;;;;;;;;;;;2083088;28;19917;-81
2023/08/13 03:49:06;;;;;;;;;;;;;;;;;;2076138;28;19914;-81
2023/08/13 03:50:27;;;;;;;;;;;;;;;;;;2077571;28;19913;-80
2023/08/13 03:51:47;;;;;;;;;;;;;;;;;;2081261;28;19909;-81
2023/08/13 03:53:08;;;;;;;;;;;;;;;;;;2081497;28;19909;-81
2023/08/13 03:54:29;;;;;;;;;;;;;;;;;;2081123;28;19909;-80
2023/08/13 03:55:49;;;;;;;;;;;;;;;;;;2073444;28;20285;-81
2023/08/13 03:57:12;;;;;;;;;;;;;;;;;;2084749;28;20389;-80
2023/08/13 03:58:34;;;;;;;;;;;;;;;;;;2097325;28;19915;-81
2023/08/13 03:59:55;;;;;;;;;;;;;;;;;;2092255;28;19916;-80
2023/08/13 04:01:16;;;;;;;;;;;;;;;;;;2091867;28;19909;-80
2023/08/13 04:02:37;;;;;;;;;;;;;;;;;;2098832;28;19912;-79
2023/08/13 04:03:58;;;;;;;;;;;;;;;;;;2096786;28;19931;-80
2023/08/13 04:05:18;;;;;;;;;;;;;;;;;;2093174;28;19920;-81
2023/08/13 04:06:39;;;;;;;;;;;;;;;;;;2094779;28;19916;-80
2023/08/13 04:08:00;;;;;;;;;;;;;;;;;;2097796;28;19917;-81
2023/08/13 04:09:20;;;;;;;;;;;;;;;;;;2092099;28;19916;-81
2023/08/13 04:10:41;;;;;;;;;;;;;;;;;;2104213;28;19931;-80
2023/08/13 04:12:02;;;;;;;;;;;;;;;;;;2090573;28;19931;-80
2023/08/13 04:13:23;;;;;;;;;;;;;;;;;;2100539;28;19908;-81
2023/08/13 04:14:43;;;;;;;;;;;;;;;;;;2101259;28;19912;-81
2023/08/13 04:16:04;;;;;;;;;;;;;;;;;;2098837;28;19916;-81
2023/08/13 04:17:25;;;;;;;;;;;;;;;;;;2097231;28;19917;-80
2023/08/13 04:18:45;;;;;;;;;;;;;;;;;;2105898;28;19935;-80
2023/08/13 04:20:07;;;;;;;;;;;;;;;;;;2098380;28;20315;-82
2023/08/13 04:21:28;;;;;;;;;;;;;;;;;;2106111;28;19917;-80
2023/08/13 04:22:49;;;;;;;;;;;;;;;;;;2101162;28;19994;-81
2023/08/13 04:24:09;;;;;;;;;;;;;;;;;;2089352;28;19943;-80
2023/08/13 04:25:31;;;;;;;;;;;;;;;;;;2096515;28;19915;-81
2023/08/13 04:26:52;;;;;;;;;;;;;;;;;;2088094;28;19927;-80
2023/08/13 04:28:13;;;;;;;;;;;;;;;;;;2097546;28;19962;-80
2023/08/13 04:29:34;;;;;;;;;;;;;;;;;;2105979;28;19912;-81
2023/08/13 04:30:55;;;;;;;;;;;;;;;;;;2102176;28;19909;-81
2023/08/13 04:32:15;;;;;;;;;;;;;;;;;;2105677;28;19908;-81
2023/08/13 04:33:36;;;;;;;;;;;;;;;;;;2101559;28;19915;-80
2023/08/13 04:34:57;;;;;;;;;;;;;;;;;;2081731;28;19916;-80
2023/08/13 04:36:17;;;;;;;;;;;;;;;;;;2095042;28;19908;-80
2023/08/13 04:37:38;;;;;;;;;;;;;;;;;;2096583;28;20289;-80
2023/08/13 04:38:59;;;;;;;;;;;;;;;;;;2090316;28;19909;-80
2023/08/13 04:40:19;;;;;;;;;;;;;;;;;;2093703;28;19935;-80
2023/08/13 04:41:40;;;;;;;;;;;;;;;;;;2090877;28;19909;-80
2023/08/13 04:43:01;;;;;;;;;;;;;;;;;;2094751;28;19998;-80
2023/08/13 04:44:22;;;;;;;;;;;;;;;;;;2090165;28;19940;-80
2023/08/13 04:45:42;;;;;;;;;;;;;;;;;;2095603;28;19909;-81
2023/08/13 04:47:03;;;;;;;;;;;;;;;;;;2088941;28;19923;-80
2023/08/13 04:48:24;;;;;;;;;;;;;;;;;;2085937;28;19909;-79
2023/08/13 04:49:44;;;;;;;;;;;;;;;;;;2086967;28;19909;-80
2023/08/13 04:51:05;;;;;;;;;;;;;;;;;;2097678;28;20372;-79
2023/08/13 04:52:26;;;;;;;;;;;;;;;;;;2097198;28;19974;-80
2023/08/13 04:53:47;;;;;;;;;;;;;;;;;;2090445;28;19909;-81
2023/08/13 04:55:07;;;;;;;;;;;;;;;;;;2094468;28;19932;-79
2023/08/13 04:56:28;;;;;;;;;;;;;;;;;;2090379;28;19927;-80
2023/08/13 04:57:49;;;;;;;;;;;;;;;;;;2081484;28;19924;-80
2023/08/13 04:59:09;;;;;;;;;;;;;;;;;;2074253;28;19909;-80
2023/08/13 05:00:30;;;;;;;;;;;;;;;;;;2074571;28;19921;-80
2023/08/13 05:01:51;;;;;;;;;;;;;;;;;;2075659;28;20380;-81
2023/08/13 05:03:11;;;;;;;;;;;;;;;;;;2074987;28;19920;-80
2023/08/13 05:04:32;;;;;;;;;;;;;;;;;;2082966;28;19997;-80
2023/08/13 05:05:53;;;;;;;;;;;;;;;;;;2083760;28;20308;-81
2023/08/13 05:07:13;;;;;;;;;;;;;;;;;;2086396;28;19936;-80
2023/08/13 05:08:34;;;;;;;;;;;;;;;;;;2077663;28;19913;-82
2023/08/13 05:09:55;;;;;;;;;;;;;;;;;;2087197;28;19909;-81
2023/08/13 05:11:16;;;;;;;;;;;;;;;;;;2084040;28;20397;-80
2023/08/13 05:12:36;;;;;;;;;;;;;;;;;;2086673;28;19913;-80
2023/08/13 05:13:57;;;;;;;;;;;;;;;;;;2082277;28;19909;-80
2023/08/13 05:15:18;;;;;;;;;;;;;;;;;;2088449;28;20272;-81
2023/08/13 05:16:39;;;;;;;;;;;;;;;;;;2082659;28;20229;-80
2023/08/13 05:17:59;;;;;;;;;;;;;;;;;;2087085;28;19917;-80
2023/08/13 05:19:20;;;;;;;;;;;;;;;;;;2082411;28;20379;-80
2023/08/13 05:20:41;;;;;;;;;;;;;;;;;;2087533;28;19913;-80
2023/08/13 05:22:01;;;;;;;;;;;;;;;;;;2076686;28;20385;-81
2023/08/13 05:23:22;;;;;;;;;;;;;;;;;;2087732;28;19913;-80
2023/08/13 05:24:43;;;;;;;;;;;;;;;;;;2091569;28;20351;-81
2023/08/13 05:26:03;;;;;;;;;;;;;;;;;;2090312;28;20315;-82
2023/08/13 05:27:24;;;;;;;;;;;;;;;;;;2088345;28;19920;-80
2023/08/13 05:28:45;;;;;;;;;;;;;;;;;;2089586;28;19909;-80
2023/08/13 05:30:06;;;;;;;;;;;;;;;;;;2081928;28;19909;-81
2023/08/13 05:31:26;;;;;;;;;;;;;;;;;;2090370;28;19913;-82
2023/08/13 05:32:47;;;;;;;;;;;;;;;;;;2090344;28;19912;-80
2023/08/13 05:34:08;;;;;;;;;;;;;;;;;;2083803;28;19913;-81
2023/08/13 05:35:28;;;;;;;;;;;;;;;;;;2099579;28;19934;-80
2023/08/13 05:36:49;;;;;;;;;;;;;;;;;;2108297;28;19909;-80
2023/08/13 05:38:10;;;;;;;;;;;;;;;;;;2097880;28;19924;-81
2023/08/13 05:39:30;;;;;;;;;;;;;;;;;;2096763;28;19908;-81
2023/08/13 05:40:51;;;;;;;;;;;;;;;;;;2091140;28;20471;-80
2023/08/13 05:42:12;;;;;;;;;;;;;;;;;;2096891;28;19962;-80
2023/08/13 05:43:33;;;;;;;;;;;;;;;;;;2098847;28;19940;-80
2023/08/13 05:44:53;;;;;;;;;;;;;;;;;;2091183;28;19935;-80
2023/08/13 05:46:14;;;;;;;;;;;;;;;;;;2096959;28;19913;-80
2023/08/13 05:47:35;;;;;;;;;;;;;;;;;;2089959;28;20307;-80
2023/08/13 05:48:55;;;;;;;;;;;;;;;;;;2087758;28;19908;-81
2023/08/13 05:50:16;;;;;;;;;;;;;;;;;;2086926;28;20252;-80
2023/08/13 05:51:37;;;;;;;;;;;;;;;;;;2091407;28;19909;-82
2023/08/13 05:52:57;;;;;;;;;;;;;;;;;;2095996;28;19913;-80
2023/08/13 05:54:18;;;;;;;;;;;;;;;;;;2090016;28;19909;-81
2023/08/13 05:55:39;;;;;;;;;;;;;;;;;;2087066;28;19909;-81
2023/08/13 05:56:59;;;;;;;;;;;;;;;;;;2093572;28;19959;-81
2023/08/13 05:58:20;;;;;;;;;;;;;;;;;;2103529;28;20315;-80
2023/08/13 05:59:41;;;;;;;;;;;;;;;;;;2097355;28;20338;-80
2023/08/13 06:01:03;;;;;;;;;;;;;;;;;;2104646;28;19919;-81
2023/08/13 06:02:23;;;;;;;;;;;;;;;;;;2104322;28;19912;-81
2023/08/13 06:03:44;;;;;;;;;;;;;;;;;;2095422;28;19912;-80
2023/08/13 06:05:06;;;;;;;;;;;;;;;;;;2087227;28;19948;-80
2023/08/13 06:06:27;;;;;;;;;;;;;;;;;;2090640;28;19917;-80
2023/08/13 06:07:47;;;;;;;;;;;;;;;;;;2081221;28;19913;-80
2023/08/13 06:09:08;;;;;;;;;;;;;;;;;;2086585;28;19920;-79
2023/08/13 06:10:29;;;;;;;;;;;;;;;;;;2092947;28;19916;-81
2023/08/13 06:11:50;;;;;;;;;;;;;;;;;;2105421;28;19908;-81
2023/08/13 06:13:10;;;;;;;;;;;;;;;;;;2100937;28;19915;-81
2023/08/13 06:14:31;;;;;;;;;;;;;;;;;;2092183;28;19909;-82
2023/08/13 06:15:52;;;;;;;;;;;;;;;;;;2095059;28;19909;-81
2023/08/13 06:17:12;;;;;;;;;;;;;;;;;;2091984;28;19909;-81
2023/08/13 06:18:33;;;;;;;;;;;;;;;;;;2095555;28;19916;-81
2023/08/13 06:19:54;;;;;;;;;;;;;;;;;;2100743;28;19934;-81
2023/08/13 06:21:15;;;;;;;;;;;;;;;;;;2096623;28;20319;-80
2023/08/13 06:22:35;;;;;;;;;;;;;;;;;;2098811;28;19908;-81
2023/08/13 06:23:56;;;;;;;;;;;;;;;;;;2097347;28;20275;-81
2023/08/13 06:25:17;;;;;;;;;;;;;;;;;;2091289;28;19908;-81
2023/08/13 06:26:37;;;;;;;;;;;;;;;;;;2089175;28;20288;-81
2023/08/13 06:27:58;;;;;;;;;;;;;;;;;;2096485;28;19917;-80
2023/08/13 06:29:19;;;;;;;;;;;;;;;;;;2098649;28;19908;-80
2023/08/13 06:30:39;;;;;;;;;;;;;;;;;;2099478;28;20276;-81
2023/08/13 06:32:00;;;;;;;;;;;;;;;;;;2087628;28;19909;-81
2023/08/13 06:33:21;;;;;;;;;;;;;;;;;;2087854;28;20237;-80
2023/08/13 06:34:41;;;;;;;;;;;;;;;;;;2094558;28;20375;-83
2023/08/13 06:36:02;;;;;;;;;;;;;;;;;;2084551;28;19909;-82
2023/08/13 06:37:23;;;;;;;;;;;;;;;;;;2087646;28;19916;-82
2023/08/13 06:38:44;;;;;;;;;;;;;;;;;;2089576;28;19921;-81
2023/08/13 06:40:05;;;;;;;;;;;;;;;;;;2090363;28;19920;-81
2023/08/13 06:41:26;;;;;;;;;;;;;;;;;;2089775;28;19912;-81
2023/08/13 06:42:47;;;;;;;;;;;;;;;;;;2090309;28;20569;-81
2023/08/13 06:44:08;;;;;;;;;;;;;;;;;;2091464;28;19912;-82
2023/08/13 06:45:29;;;;;;;;;;;;;;;;;;2100534;28;19909;-81
2023/08/13 06:46:50;;;;;;;;;;;;;;;;;;2090028;28;20356;-81
2023/08/13 06:48:11;;;;;;;;;;;;;;;;;;2087056;28;20260;-80
2023/08/13 06:49:31;;;;;;;;;;;;;;;;;;2099891;28;19916;-80
2023/08/13 06:50:52;;;;;;;;;;;;;;;;;;2092081;28;19909;-80
2023/08/13 06:52:13;;;;;;;;;;;;;;;;;;2095951;28;19916;-80
2023/08/13 06:53:34;;;;;;;;;;;;;;;;;;2093404;28;19920;-80
2023/08/13 06:54:54;;;;;;;;;;;;;;;;;;2097742;28;19932;-82
2023/08/13 06:56:15;;;;;;;;;;;;;;;;;;2088413;28;19921;-80
2023/08/13 06:57:37;;;;;;;;;;;;;;;;;;2098279;28;19908;-81
2023/08/13 06:58:58;;;;;;;;;;;;;;;;;;2091312;28;20304;-80
2023/08/13 07:00:20;;;;;;;;;;;;;;;;;;2089624;28;19909;-81
2023/08/13 07:01:40;;;;;;;;;;;;;;;;;;2097295;28;20269;-80
2023/08/13 07:03:02;;;;;;;;;;;;;;;;;;2092989;28;20434;-80
2023/08/13 07:04:23;;;;;;;;;;;;;;;;;;2090501;28;19909;-80
2023/08/13 07:05:44;;;;;;;;;;;;;;;;;;2088416;28;19920;-81
2023/08/13 07:07:06;;;;;;;;;;;;;;;;;;2097070;28;19908;-81
2023/08/13 07:08:26;;;;;;;;;;;;;;;;;;2077859;28;20320;-80
2023/08/13 07:09:47;;;;;;;;;;;;;;;;;;2080611;28;19910;-80
2023/08/13 07:11:08;;;;;;;;;;;;;;;;;;2081829;28;19910;-80
2023/08/13 07:12:29;;;;;;;;;;;;;;;;;;2090589;28;19916;-80
2023/08/13 07:13:51;;;;;;;;;;;;;;;;;;2097434;28;20281;-80
2023/08/13 07:15:11;;;;;;;;;;;;;;;;;;2092373;28;19908;-80
2023/08/13 07:16:32;;;;;;;;;;;;;;;;;;2080751;28;19917;-80
2023/08/13 07:17:53;;;;;;;;;;;;;;;;;;2080935;28;20383;-80
2023/08/13 07:19:14;;;;;;;;;;;;;;;;;;2074549;28;20092;-80
2023/08/13 07:20:34;;;;;;;;;;;;;;;;;;2093088;28;19940;-81
2023/08/13 07:21:55;;;;;;;;;;;;;;;;;;2092217;28;19909;-80
2023/08/13 07:23:16;;;;;;;;;;;;;;;;;;2087731;28;20284;-80
2023/08/13 07:24:37;;;;;;;;;;;;;;;;;;2097739;28;19908;-80
2023/08/13 07:25:57;;;;;;;;;;;;;;;;;;2090486;28;19916;-79
2023/08/13 07:27:19;;;;;;;;;;;;;;;;;;2082987;28;20165;-80
2023/08/13 07:28:40;;;;;;;;;;;;;;;;;;2086148;28;20471;-79
2023/08/13 07:30:01;;;;;;;;;;;;;;;;;;2089101;28;19913;-79
2023/08/13 07:31:21;;;;;;;;;;;;;;;;;;2089269;28;19968;-80
2023/08/13 07:32:42;;;;;;;;;;;;;;;;;;2080209;28;19917;-80
2023/08/13 07:34:03;;;;;;;;;;;;;;;;;;2090392;28;20410;-80
2023/08/13 07:35:24;;;;;;;;;;;;;;;;;;2085771;28;19909;-80
2023/08/13 07:36:45;;;;;;;;;;;;;;;;;;2089083;28;20364;-80
2023/08/13 07:38:05;;;;;;;;;;;;;;;;;;2104026;28;19912;-80
2023/08/13 07:39:26;;;;;;;;;;;;;;;;;;2091499;28;19920;-79
2023/08/13 07:40:47;;;;;;;;;;;;;;;;;;2090113;28;19909;-79
2023/08/13 07:42:08;;;;;;;;;;;;;;;;;;2096493;28;20376;-80
2023/08/13 07:43:30;;;;;;;;;;;;;;;;;;2087968;28;19916;-80
2023/08/13 07:44:50;;;;;;;;;;;;;;;;;;2095095;28;19920;-80
2023/08/13 07:46:11;;;;;;;;;;;;;;;;;;2091447;28;19913;-80
2023/08/13 07:47:32;;;;;;;;;;;;;;;;;;2083915;28;19917;-80
2023/08/13 07:48:53;;;;;;;;;;;;;;;;;;2094839;28;20335;-80
2023/08/13 07:50:13;;;;;;;;;;;;;;;;;;2087185;28;19909;-80
2023/08/13 07:51:34;;;;;;;;;;;;;;;;;;2087337;28;20300;-80
2023/08/13 07:52:55;;;;;;;;;;;;;;;;;;2088740;28;19917;-79
2023/08/13 07:54:15;;;;;;;;;;;;;;;;;;2081471;28;19916;-80
2023/08/13 07:55:36;;;;;;;;;;;;;;;;;;2086716;28;19916;-80
2023/08/13 07:56:57;;;;;;;;;;;;;;;;;;2086873;28;19925;-81
2023/08/13 07:58:18;;;;;;;;;;;;;;;;;;2088918;28;19921;-80
2023/08/13 07:59:38;;;;;;;;;;;;;;;;;;2083569;28;19909;-80
2023/08/13 08:00:59;;;;;;;;;;;;;;;;;;2086288;28;19924;-80
2023/08/13 08:02:20;;;;;;;;;;;;;;;;;;2090255;28;20010;-80
2023/08/13 08:03:41;;;;;;;;;;;;;;;;;;2090403;28;19913;-80
2023/08/13 08:05:05;;;;;;;;;;;;;;;;;;2087764;28;20023;-80
2023/08/13 08:06:26;;;;;;;;;;;;;;;;;;2088368;28;19932;-77
2023/08/13 08:07:47;;;;;;;;;;;;;;;;;;2082613;28;20276;-76
2023/08/13 08:09:08;;;;;;;;;;;;;;;;;;2090144;28;19920;-77
2023/08/13 08:10:28;;;;;;;;;;;;;;;;;;2089582;28;19908;-77
2023/08/13 08:11:49;;;;;;;;;;;;;;;;;;2091309;28;19920;-77
2023/08/13 08:13:10;;;;;;;;;;;;;;;;;;2088801;28;20339;-76
2023/08/13 08:14:30;;;;;;;;;;;;;;;;;;2098187;28;20007;-77
2023/08/13 08:15:51;;;;;;;;;;;;;;;;;;2086959;28;20012;-77
2023/08/13 08:17:12;;;;;;;;;;;;;;;;;;2089565;28;19913;-76
2023/08/13 08:18:32;;;;;;;;;;;;;;;;;;2088184;28;20426;-76
2023/08/13 08:19:54;;;;;;;;;;;;;;;;;;2086019;28;19920;-77
2023/08/13 08:21:14;;;;;;;;;;;;;;;;;;2086977;28;20244;-77
2023/08/13 08:22:35;;;;;;;;;;;;;;;;;;2096294;28;19919;-77
2023/08/13 08:23:56;;;;;;;;;;;;;;;;;;2088337;28;19917;-77
2023/08/13 08:25:16;;;;;;;;;;;;;;;;;;2082062;28;20316;-77
2023/08/13 08:26:37;;;;;;;;;;;;;;;;;;2089182;28;19916;-78
2023/08/13 08:27:58;;;;;;;;;;;;;;;;;;2080704;28;19992;-77
2023/08/13 08:29:19;;;;;;;;;;;;;;;;;;2084497;28;19917;-78
2023/08/13 08:30:40;;;;;;;;;;;;;;;;;;2081770;28;19920;-76
2023/08/13 08:32:01;;;;;;;;;;;;;;;;;;2091184;28;19913;-78
2023/08/13 08:33:23;;;;;;;;;;;;;;;;;;2088671;28;20008;-77
2023/08/13 08:34:44;;;;;;;;;;;;;;;;;;2107891;28;19908;-76
2023/08/13 08:36:05;;;;;;;;;;;;;;;;;;2097998;28;19936;-76
2023/08/13 08:37:25;;;;;;;;;;;;;;;;;;2090794;28;19979;-77
2023/08/13 08:38:46;;;;;;;;;;;;;;;;;;2085508;28;20218;-77
2023/08/13 08:40:07;;;;;;;;;;;;;;;;;;2090605;28;19909;-76
2023/08/13 08:41:28;;;;;;;;;;;;;;;;;;2089039;28;20387;-77
2023/08/13 08:42:49;;;;;;;;;;;;;;;;;;2095352;28;19909;-76
2023/08/13 08:44:09;;;;;;;;;;;;;;;;;;2087492;28;19909;-77
2023/08/13 08:45:30;;;;;;;;;;;;;;;;;;2092656;28;20145;-77
2023/08/13 08:46:51;;;;;;;;;;;;;;;;;;2090975;28;19916;-77
2023/08/13 08:48:12;;;;;;;;;;;;;;;;;;2090521;28;20379;-77
2023/08/13 08:49:33;;;;;;;;;;;;;;;;;;2090751;28;19916;-77
2023/08/13 08:50:54;;;;;;;;;;;;;;;;;;2091181;28;19909;-76
2023/08/13 08:52:14;;;;;;;;;;;;;;;;;;2090827;28;20273;-77
2023/08/13 08:53:35;;;;;;;;;;;;;;;;;;2083137;28;19913;-77
2023/08/13 08:54:56;;;;;;;;;;;;;;;;;;2082796;28;20291;-77
2023/08/13 08:56:17;;;;;;;;;;;;;;;;;;2090217;28;19924;-77
2023/08/13 08:57:37;;;;;;;;;;;;;;;;;;2094575;28;20012;-77
2023/08/13 08:58:58;;;;;;;;;;;;;;;;;;2091006;28;19913;-76
2023/08/13 09:00:19;;;;;;;;;;;;;;;;;;2098397;28;19909;-77
2023/08/13 09:01:40;;;;;;;;;;;;;;;;;;2084108;28;19917;-77
2023/08/13 09:03:02;;;;;;;;;;;;;;;;;;2089297;28;19908;-77
2023/08/13 09:04:23;;;;;;;;;;;;;;;;;;2101060;28;19912;-77
2023/08/13 09:05:44;;;;;;;;;;;;;;;;;;2108644;28;19908;-77
2023/08/13 09:07:05;;;;;;;;;;;;;;;;;;2107326;28;19919;-77
2023/08/13 09:08:25;;;;;;;;;;;;;;;;;;2092672;28;19979;-77
2023/08/13 09:09:46;;;;;;;;;;;;;;;;;;2103587;28;20025;-77
2023/08/13 09:11:08;;;;;;;;;;;;;;;;;;2102809;28;19908;-77